createdAt,value
2023-01-19T00:01:25.186Z,58.48
2023-01-19T00:03:55.688Z,58.98
2023-01-19T00:06:22.615Z,59.26
2023-01-19T00:08:50.347Z,59.11
2023-01-19T00:11:19.902Z,58.85
2023-01-19T00:13:50.395Z,58.53
2023-01-19T00:16:18.579Z,58.93
2023-01-19T00:18:50.712Z,58.61
2023-01-19T00:21:18.175Z,58.53
2023-01-19T00:23:47.422Z,59.16
2023-01-19T00:26:16.181Z,59.21
2023-01-19T00:28:47.158Z,58.93
2023-01-19T00:31:14.010Z,58.90
2023-01-19T00:33:40.682Z,59.60
2023-01-19T00:36:07.635Z,59.11
2023-01-19T00:38:34.270Z,59.02
2023-01-19T00:41:01.127Z,59.78
2023-01-19T00:43:28.273Z,58.96
2023-01-19T00:45:55.212Z,59.04
2023-01-19T00:48:24.654Z,59.23
2023-01-19T00:50:51.170Z,59.44
2023-01-19T00:53:17.862Z,59.40
2023-01-19T00:55:45.333Z,59.64
2023-01-19T00:58:13.235Z,59.50
2023-01-19T01:00:40.122Z,59.94
2023-01-19T01:03:07.198Z,59.46
2023-01-19T01:05:33.947Z,59.53
2023-01-19T01:08:00.681Z,60.19
2023-01-19T01:10:29.175Z,59.75
2023-01-19T01:13:20.383Z,60.17
2023-01-19T01:15:42.913Z,60.05
2023-01-19T01:18:09.573Z,60.05
2023-01-19T01:20:37.105Z,60.91
2023-01-19T01:23:05.285Z,61.05
2023-01-19T01:25:34.355Z,60.93
2023-01-19T01:28:02.970Z,60.80
2023-01-19T01:30:29.607Z,60.93
2023-01-19T01:32:56.322Z,60.72
2023-01-19T01:35:25.967Z,61.69
2023-01-19T01:38:03.518Z,61.81
2023-01-19T01:40:30.935Z,61.77
2023-01-19T01:42:57.816Z,61.45
2023-01-19T01:45:40.789Z,61.39
2023-01-19T01:48:15.202Z,61.78
2023-01-19T01:51:06.139Z,61.38
2023-01-19T01:53:34.089Z,61.94
2023-01-19T01:56:03.368Z,61.52
2023-01-19T01:58:33.861Z,62.31
2023-01-19T02:01:19.187Z,61.89
2023-01-19T02:03:45.896Z,62.44
2023-01-19T02:06:14.068Z,61.90
2023-01-19T02:09:05.847Z,62.39
2023-01-19T02:11:52.498Z,62.32
2023-01-19T02:14:19.150Z,62.20
2023-01-19T02:16:46.356Z,61.83
2023-01-19T02:19:21.858Z,61.61
2023-01-19T02:22:02.130Z,62.29
2023-01-19T02:24:29.410Z,62.01
2023-01-19T02:26:56.659Z,62.86
2023-01-19T02:29:25.202Z,62.93
2023-01-19T02:31:52.872Z,64.13
2023-01-19T02:34:20.732Z,63.66
2023-01-19T02:36:53.537Z,64.65
2023-01-19T02:39:22.689Z,65.12
2023-01-19T02:41:56.146Z,64.82
2023-01-19T02:44:23.445Z,65.23
2023-01-19T02:46:50.592Z,64.79
2023-01-19T02:49:17.537Z,65.12
2023-01-19T02:51:44.473Z,64.56
2023-01-19T02:54:30.133Z,64.54
2023-01-19T02:57:15.809Z,64.78
2023-01-19T02:59:53.800Z,64.46
2023-01-19T03:02:20.529Z,64.91
2023-01-19T03:05:00.276Z,64.32
2023-01-19T03:07:26.935Z,64.62
2023-01-19T03:09:59.381Z,63.69
2023-01-19T03:12:33.716Z,63.74
2023-01-19T03:15:05.947Z,63.67
2023-01-19T03:17:33.820Z,64.61
2023-01-19T03:20:02.407Z,63.79
2023-01-19T03:22:29.680Z,63.78
2023-01-19T03:24:59.586Z,63.81
2023-01-19T03:27:30.482Z,63.34
2023-01-19T03:30:01.106Z,62.79
2023-01-19T03:32:36.748Z,63.24
2023-01-19T03:35:06.186Z,61.92
2023-01-19T03:37:34.142Z,61.93
2023-01-19T03:40:00.851Z,61.88
2023-01-19T03:42:28.467Z,61.37
2023-01-19T03:44:56.637Z,61.85
2023-01-19T03:47:23.914Z,60.91
2023-01-19T03:49:51.032Z,60.57
2023-01-19T03:52:17.658Z,60.38
2023-01-19T03:54:44.431Z,60.54
2023-01-19T03:57:10.947Z,60.74
2023-01-19T03:59:37.747Z,62.10
2023-01-19T04:02:04.341Z,62.21
2023-01-19T04:04:30.934Z,62.54
2023-01-19T04:06:58.161Z,62.70
2023-01-19T04:09:25.984Z,62.81
2023-01-19T04:11:52.936Z,62.80
2023-01-19T04:14:19.537Z,62.70
2023-01-19T04:16:46.284Z,62.52
2023-01-19T04:19:12.854Z,62.44
2023-01-19T04:21:39.719Z,62.31
2023-01-19T04:24:06.586Z,63.65
2023-01-19T04:26:33.476Z,63.15
2023-01-19T04:29:00.059Z,64.05
2023-01-19T04:31:27.292Z,63.55
2023-01-19T04:33:56.093Z,64.17
2023-01-19T04:36:23.056Z,63.58
2023-01-19T04:38:49.744Z,63.57
2023-01-19T04:41:16.250Z,64.21
2023-01-19T04:43:42.996Z,63.29
2023-01-19T04:46:09.681Z,63.53
2023-01-19T04:48:36.617Z,63.98
2023-01-19T04:51:03.371Z,63.78
2023-01-19T04:53:30.355Z,63.64
2023-01-19T04:55:57.066Z,63.42
2023-01-19T04:58:23.720Z,64.04
2023-01-19T05:00:51.264Z,63.48
2023-01-19T05:03:19.318Z,63.67
2023-01-19T05:05:46.256Z,63.76
2023-01-19T05:08:13.167Z,65.02
2023-01-19T05:10:39.837Z,65.41
2023-01-19T05:13:06.425Z,65.04
2023-01-19T05:15:33.883Z,64.79
2023-01-19T05:18:00.745Z,65.74
2023-01-19T05:20:27.440Z,65.73
2023-01-19T05:22:54.148Z,65.47
2023-01-19T05:25:20.840Z,64.01
2023-01-19T05:27:47.719Z,63.30
2023-01-19T05:30:14.483Z,63.24
2023-01-19T05:32:41.297Z,63.15
2023-01-19T05:35:08.684Z,63.51
2023-01-19T05:37:35.181Z,63.29
2023-01-19T05:40:01.812Z,64.00
2023-01-19T05:42:29.556Z,64.26
2023-01-19T05:44:57.378Z,64.20
2023-01-19T05:47:24.264Z,64.58
2023-01-19T05:49:50.868Z,65.10
2023-01-19T05:52:17.563Z,65.68
2023-01-19T05:54:44.732Z,65.72
2023-01-19T05:57:11.820Z,65.12
2023-01-19T05:59:38.607Z,64.92
2023-01-19T06:02:05.385Z,65.49
2023-01-19T06:04:32.207Z,65.68
2023-01-19T06:06:58.903Z,65.20
2023-01-19T06:09:25.480Z,65.29
2023-01-19T06:11:54.210Z,65.12
2023-01-19T06:14:20.925Z,66.23
2023-01-19T06:16:47.468Z,66.20
2023-01-19T06:19:15.014Z,65.62
2023-01-19T06:21:41.964Z,65.81
2023-01-19T06:24:09.689Z,66.13
2023-01-19T06:26:37.328Z,66.08
2023-01-19T06:29:04.319Z,66.08
2023-01-19T06:31:30.974Z,66.05
2023-01-19T06:33:59.592Z,66.66
2023-01-19T06:36:26.345Z,66.08
2023-01-19T06:38:53.609Z,65.52
2023-01-19T14:03:14.221Z,49.34
2023-01-19T14:05:42.687Z,50.20
2023-01-19T14:08:11.340Z,50.32
2023-01-19T14:10:39.975Z,50.09
2023-01-19T14:13:17.455Z,50.57
2023-01-19T14:15:45.020Z,50.71
2023-01-19T14:18:14.639Z,50.69
2023-01-19T14:20:52.745Z,50.96
2023-01-19T14:23:58.044Z,50.05
2023-01-19T14:26:43.958Z,51.22
2023-01-19T14:29:33.146Z,50.47
2023-01-19T14:32:07.860Z,51.02
2023-01-19T14:34:34.477Z,51.17
2023-01-19T14:37:02.273Z,50.86
2023-01-19T14:39:30.855Z,51.00
2023-01-19T14:41:58.924Z,51.19
2023-01-19T14:44:33.607Z,50.65
2023-01-19T14:47:00.383Z,50.43
2023-01-19T14:49:32.593Z,50.47
2023-01-19T14:52:00.521Z,50.36
2023-01-19T14:54:41.145Z,50.76
2023-01-19T14:57:12.820Z,51.09
2023-01-19T14:59:39.850Z,50.49
2023-01-19T15:02:06.783Z,50.91
2023-01-19T15:04:34.181Z,51.08
2023-01-19T15:07:01.229Z,50.77
2023-01-19T15:09:27.971Z,51.76
2023-01-19T15:11:54.538Z,51.85
2023-01-19T15:14:21.693Z,52.27
2023-01-19T15:16:48.711Z,52.81
2023-01-19T15:19:17.164Z,52.94
2023-01-19T15:21:46.344Z,52.38
2023-01-19T15:24:13.403Z,52.86
2023-01-19T15:26:41.286Z,52.91
2023-01-19T15:29:22.890Z,53.13
2023-01-19T15:31:54.298Z,53.59
2023-01-19T15:34:22.072Z,54.09
2023-01-19T15:36:49.680Z,54.35
2023-01-19T15:39:17.719Z,54.01
2023-01-19T15:41:44.423Z,53.84
2023-01-19T15:44:11.215Z,53.06
2023-01-19T15:46:40.534Z,53.12
2023-01-19T15:49:08.380Z,52.82
2023-01-19T15:51:37.811Z,53.44
2023-01-19T15:54:11.195Z,53.80
2023-01-19T15:56:41.103Z,54.48
2023-01-19T15:59:08.261Z,54.43
2023-01-19T16:01:35.235Z,55.06
2023-01-19T16:04:03.678Z,55.52
2023-01-19T16:06:30.583Z,56.28
2023-01-19T16:09:01.125Z,56.56
2023-01-19T16:11:29.170Z,56.17
2023-01-19T16:13:56.097Z,56.42
2023-01-19T16:16:24.271Z,56.89
2023-01-19T16:18:51.478Z,57.30
2023-01-19T16:21:18.134Z,58.05
2023-01-19T16:23:44.884Z,58.23
2023-01-19T16:26:24.308Z,58.35
2023-01-19T16:28:50.903Z,57.60
2023-01-19T16:31:19.215Z,57.42
2023-01-19T16:33:45.935Z,57.43
2023-01-19T16:36:18.734Z,58.16
2023-01-19T16:38:46.154Z,58.97
2023-01-19T16:41:12.807Z,59.17
2023-01-19T16:43:39.444Z,58.73
2023-01-19T16:46:06.142Z,58.85
2023-01-19T16:48:32.835Z,59.42
2023-01-19T16:50:59.811Z,59.51
2023-01-19T16:53:26.856Z,60.32
2023-01-19T16:55:53.526Z,61.12
2023-01-19T16:58:20.540Z,61.70
2023-01-19T17:00:47.220Z,61.01
2023-01-19T17:03:14.363Z,61.91
2023-01-19T17:05:41.050Z,62.09
2023-01-19T17:08:08.083Z,63.79
2023-01-19T17:10:39.974Z,64.41
2023-01-19T17:13:06.680Z,64.06
2023-01-19T17:15:33.529Z,64.40
2023-01-19T17:18:02.456Z,63.87
2023-01-19T17:20:29.387Z,64.54
2023-01-19T17:22:56.133Z,64.69
2023-01-19T17:25:22.872Z,64.70
2023-01-19T17:27:49.371Z,64.54
2023-01-19T17:30:16.251Z,64.56
2023-01-19T17:32:43.110Z,64.69
2023-01-19T17:35:10.240Z,64.81
2023-01-19T17:37:36.855Z,64.55
2023-01-19T17:40:05.635Z,64.22
2023-01-19T17:42:32.352Z,64.78
2023-01-19T17:45:01.832Z,64.13
2023-01-19T17:47:28.832Z,65.31
2023-01-19T17:49:55.376Z,65.14
2023-01-19T17:52:22.266Z,65.37
2023-01-19T17:54:49.067Z,65.37
2023-01-19T17:57:15.967Z,66.01
2023-01-19T17:59:44.081Z,66.43
2023-01-19T18:02:26.837Z,66.45
2023-01-19T18:04:54.207Z,66.03
2023-01-19T18:07:21.265Z,66.28
2023-01-19T18:09:53.137Z,66.01
2023-01-19T18:12:25.950Z,65.24
2023-01-19T18:14:53.737Z,65.67
2023-01-19T18:17:20.472Z,66.26
2023-01-19T18:19:49.807Z,65.96
2023-01-19T18:22:33.298Z,65.90
2023-01-19T18:25:06.641Z,65.63
2023-01-19T18:27:33.702Z,64.62
2023-01-19T18:30:03.788Z,65.24
2023-01-19T18:32:31.209Z,65.84
2023-01-19T18:35:10.899Z,65.52
2023-01-19T18:37:38.329Z,65.17
2023-01-19T18:40:05.370Z,65.12
2023-01-19T18:42:33.989Z,65.38
2023-01-19T18:45:07.020Z,65.16
2023-01-19T18:47:46.307Z,64.35
2023-01-19T18:50:21.139Z,63.98
2023-01-19T18:53:11.520Z,64.71
2023-01-19T18:55:39.932Z,64.15
2023-01-19T18:58:07.290Z,64.15
2023-01-19T19:00:36.749Z,63.97
2023-01-19T19:03:18.599Z,63.60
2023-01-19T19:05:45.402Z,64.05
2023-01-19T19:08:13.369Z,64.29
2023-01-19T19:10:42.735Z,63.06
2023-01-19T19:13:15.498Z,63.38
2023-01-19T19:15:44.624Z,63.14
2023-01-19T19:18:14.062Z,62.81
2023-01-19T19:20:43.104Z,63.43
2023-01-19T19:23:10.459Z,63.76
2023-01-19T19:25:37.616Z,63.88
2023-01-19T19:28:04.481Z,64.27
2023-01-19T19:30:32.537Z,63.41
2023-01-19T19:33:00.100Z,63.89
2023-01-19T19:35:26.872Z,64.49
2023-01-19T19:37:57.489Z,64.21
2023-01-19T19:40:27.967Z,63.96
2023-01-19T19:42:58.415Z,63.34
2023-01-19T19:45:26.342Z,63.56
2023-01-19T19:47:53.291Z,63.92
2023-01-19T19:50:20.436Z,63.65
2023-01-19T19:52:47.167Z,63.89
2023-01-19T19:55:13.787Z,64.19
2023-01-19T19:57:40.920Z,63.67
2023-01-19T20:00:08.034Z,63.96
2023-01-19T20:02:37.184Z,63.45
2023-01-19T20:05:06.671Z,62.85
2023-01-19T20:07:33.540Z,62.96
2023-01-19T20:10:00.212Z,63.08
2023-01-19T20:12:27.519Z,63.41
2023-01-19T20:14:55.420Z,63.25
2023-01-19T20:17:23.218Z,63.76
2023-01-19T20:19:49.728Z,63.25
2023-01-19T20:22:16.450Z,63.61
2023-01-19T20:24:44.655Z,63.85
2023-01-19T20:27:11.264Z,64.60
2023-01-19T20:29:38.076Z,63.75
2023-01-19T20:32:04.928Z,64.52
2023-01-19T20:34:33.910Z,64.51
2023-01-19T20:37:01.792Z,64.97
2023-01-19T20:39:30.320Z,64.85
2023-01-19T20:41:58.933Z,64.67
2023-01-19T20:44:28.925Z,64.83
2023-01-19T20:46:55.769Z,65.59
2023-01-19T20:49:24.320Z,64.67
2023-01-19T20:51:52.418Z,64.63
2023-01-19T20:54:22.837Z,64.26
2023-01-19T20:56:49.717Z,64.61
2023-01-19T20:59:16.579Z,64.19
2023-01-19T21:01:43.552Z,64.42
2023-01-19T21:04:10.885Z,64.11
2023-01-19T21:06:38.130Z,64.45
2023-01-19T21:09:04.751Z,64.31
2023-01-19T21:11:31.777Z,64.33
2023-01-19T21:13:58.435Z,63.73
2023-01-19T21:16:26.569Z,63.75
2023-01-19T21:18:53.650Z,64.00
2023-01-19T21:21:29.887Z,64.21
2023-01-19T21:23:58.750Z,64.08
2023-01-19T21:26:25.538Z,63.55
2023-01-19T21:28:52.269Z,63.59
2023-01-19T21:31:18.853Z,64.25
2023-01-19T21:33:45.586Z,63.58
2023-01-19T21:36:12.165Z,63.34
2023-01-19T21:38:38.984Z,63.83
2023-01-19T21:41:19.558Z,63.88
2023-01-19T21:43:46.580Z,64.32
2023-01-19T21:46:19.390Z,64.38
2023-01-19T21:48:46.769Z,63.86
2023-01-19T21:51:14.174Z,63.55
2023-01-19T21:53:41.170Z,62.70
2023-01-19T21:56:09.400Z,62.81
2023-01-19T21:58:36.152Z,61.71
2023-01-19T22:01:04.530Z,61.47
2023-01-19T22:03:31.299Z,62.03
2023-01-19T22:06:03.251Z,61.48
2023-01-19T22:08:29.872Z,60.57
2023-01-19T22:10:56.481Z,59.62
2023-01-19T22:13:23.598Z,59.30
2023-01-19T22:15:50.093Z,60.19
2023-01-19T22:18:17.101Z,60.03
2023-01-19T22:20:43.766Z,59.69
2023-01-19T22:23:10.344Z,59.82
2023-01-19T22:25:36.899Z,58.82
2023-01-19T22:28:03.412Z,59.10
2023-01-19T22:30:31.368Z,59.06
2023-01-19T22:32:58.029Z,59.10
2023-01-19T22:35:24.599Z,58.98
2023-01-19T22:37:54.830Z,58.56
2023-01-19T22:40:22.118Z,58.84
2023-01-19T22:42:49.329Z,58.77
2023-01-19T22:45:16.246Z,59.31
2023-01-19T22:47:43.082Z,59.11
2023-01-19T22:50:10.846Z,58.84
2023-01-19T22:52:37.603Z,58.70
2023-01-19T22:55:04.323Z,58.64
2023-01-19T22:57:34.334Z,59.11
2023-01-19T23:00:00.900Z,58.81
2023-01-19T23:02:27.480Z,59.42
2023-01-19T23:04:54.044Z,59.63
2023-01-19T23:07:20.922Z,59.56
2023-01-19T23:09:47.447Z,58.93
2023-01-19T23:12:13.932Z,58.77
2023-01-19T23:14:40.537Z,59.19
2023-01-19T23:17:07.305Z,58.83
2023-01-19T23:19:33.927Z,58.32
2023-01-19T23:22:00.660Z,58.73
2023-01-19T23:24:27.306Z,58.58
2023-01-19T23:26:53.858Z,58.05
2023-01-19T23:29:20.399Z,58.66
2023-01-19T23:31:48.303Z,58.71
2023-01-19T23:34:15.531Z,58.94
2023-01-19T23:36:42.601Z,58.33
2023-01-19T23:39:16.662Z,58.28
2023-01-19T23:41:43.392Z,58.58
2023-01-19T23:44:10.060Z,58.69
2023-01-19T23:46:36.625Z,58.43
2023-01-19T23:49:03.421Z,58.32
2023-01-19T23:51:30.740Z,58.45
2023-01-19T23:53:58.241Z,58.75
2023-01-19T23:56:29.419Z,58.01
2023-01-19T23:58:57.507Z,57.74
